Southern Mariner — CFG2618 — position and weather

sailwx.info

Track history (hours):
 
Tides and Currents Weather Stations Pressure Air Temp Water Temp Dewpoint Dewpoint Depression Visibility Wind Speed Wind Dir Waves Ship Positions

Southern Mariner

Last reported at 2015-Jul-16 17:22 UTC. Time now 2015-Jul-31 11:25 UTC.
Position N 47°34' W 052°43'.
Warning: this ship's position is 14 days out of date.

Length 20 m.

Type: Fishing. MMSI: 316004790.

Date/timePositionNaut miles runAvg speedWind from/ knotsBaromVisibWave heightAir tempDewpointWater temp
2015-Jul-16 17:22N 47°34' W 052°43'0 0.0
2015-Jul-16 16:16N 47°34' W 052°43'0 0.0
2015-Jul-16 15:28N 47°34' W 052°43'0 0.0
2015-Jul-16 12:23N 47°34' W 052°43'1 0.2
2015-Jul-16 08:24N 47°34' W 052°42'0 0.0
2015-Jul-15 23:24N 47°34' W 052°42'0 0.0
2015-Jul-15 22:30N 47°34' W 052°42'0 0.0
2015-Jul-15 21:13N 47°34' W 052°42'0 0.0
2015-Jul-15 20:25N 47°34' W 052°42'0 0.0
2015-Jul-15 17:13N 47°34' W 052°42'0 0.0
2015-Jul-15 16:28N 47°34' W 052°42'0 0.0
2015-Jul-15 15:22N 47°34' W 052°42'0 0.0
2015-Jul-15 14:16N 47°34' W 052°42'0 0.0
2015-Jul-15 13:16N 47°34' W 052°42'0 0.0
2015-Jul-15 12:26N 47°34' W 052°42'  
2015-Jul-10 21:08N 47°32' W 052°34'6 1.8
2015-Jul-10 18:03N 47°34' W 052°42'0 0.0
2015-Jul-10 15:09N 47°34' W 052°42'0 0.0
2015-Jul-10 14:03N 47°34' W 052°42'0 0.0
2015-Jul-10 13:15N 47°34' W 052°42'0 0.0
2015-Jul-10 12:30N 47°34' W 052°42'0 0.0
2015-Jul-10 11:21N 47°34' W 052°42'0 0.0
2015-Jul-10 09:27N 47°34' W 052°42'3 1.6
2015-Jul-10 07:28N 47°34' W 052°37'  
2015-Jul-06 23:25N 47°33' W 052°37'  
Track history (hours):
 
Tides and Currents Weather Stations Pressure Air Temp Water Temp Dewpoint Dewpoint Depression Visibility Wind Speed Wind Dir Waves Ship Positions

Southern Mariner

Last reported at 2015-Jul-16 17:22 UTC. Time now 2015-Jul-31 11:25 UTC.
Position N 47°34' W 052°43'.
Warning: this ship's position is 14 days out of date.

Length 20 m.

Type: Fishing. MMSI: 316004790.

Date/timePositionNaut miles runAvg speedWind from/ knotsBaromVisibWave heightAir tempDewpointWater temp
2015-Jul-16 17:22N 47°34' W 052°43'0 0.0
2015-Jul-16 16:16N 47°34' W 052°43'0 0.0
2015-Jul-16 15:28N 47°34' W 052°43'0 0.0
2015-Jul-16 12:23N 47°34' W 052°43'1 0.2
2015-Jul-16 08:24N 47°34' W 052°42'0 0.0
2015-Jul-15 23:24N 47°34' W 052°42'0 0.0
2015-Jul-15 22:30N 47°34' W 052°42'0 0.0
2015-Jul-15 21:13N 47°34' W 052°42'0 0.0
2015-Jul-15 20:25N 47°34' W 052°42'0 0.0
2015-Jul-15 17:13N 47°34' W 052°42'0 0.0
2015-Jul-15 16:28N 47°34' W 052°42'0 0.0
2015-Jul-15 15:22N 47°34' W 052°42'0 0.0
2015-Jul-15 14:16N 47°34' W 052°42'0 0.0
2015-Jul-15 13:16N 47°34' W 052°42'0 0.0
2015-Jul-15 12:26N 47°34' W 052°42'  
2015-Jul-10 21:08N 47°32' W 052°34'6 1.8
2015-Jul-10 18:03N 47°34' W 052°42'0 0.0
2015-Jul-10 15:09N 47°34' W 052°42'0 0.0
2015-Jul-10 14:03N 47°34' W 052°42'0 0.0
2015-Jul-10 13:15N 47°34' W 052°42'0 0.0
2015-Jul-10 12:30N 47°34' W 052°42'0 0.0
2015-Jul-10 11:21N 47°34' W 052°42'0 0.0
2015-Jul-10 09:27N 47°34' W 052°42'3 1.6
2015-Jul-10 07:28N 47°34' W 052°37'  
2015-Jul-06 23:25N 47°33' W 052°37'  

Dump ship's entire track history